Time;durP1;ratioP1;P1;durP2;ratioP2;P2;SDS_P1;SDS_P2;PMS_P1;PMS_P2;Temp;Humidity;BMP_temperature;BMP_pressure;BME280_temperature;BME280_humidity;BME280_pressure;Samples;Min_cycle;Max_cycle;Signal;HPM_P1;HPM_P2
2023/04/02 00:00:15;;;;;;;1.00;0.80;;;6.50;99.90;;;;;;5032475;28;20246;-94
2023/04/02 00:02:47;;;;;;;1.05;0.82;;;6.50;99.90;;;;;;5029340;28;20213;-94
2023/04/02 00:05:50;;;;;;;0.90;0.80;;;6.40;99.90;;;;;;5028779;28;20631;-94
2023/04/02 00:08:24;;;;;;;1.00;0.90;;;6.40;99.90;;;;;;5026786;28;20222;-94
2023/04/02 00:10:54;;;;;;;1.00;0.70;;;6.50;99.90;;;;;;5032176;28;20206;-93
2023/04/02 00:13:35;;;;;;;0.95;0.80;;;6.50;99.90;;;;;;5031127;28;20847;-93
2023/04/02 00:16:04;;;;;;;1.15;0.80;;;6.50;99.90;;;;;;5029986;28;20210;-94
2023/04/02 00:18:33;;;;;;;1.75;0.70;;;6.50;99.90;;;;;;5025651;28;20222;-93
2023/04/02 00:21:10;;;;;;;1.20;0.80;;;6.50;99.90;;;;;;5033255;28;20214;-92
2023/04/02 00:23:38;;;;;;;0.90;0.73;;;6.50;99.90;;;;;;5040233;28;20198;-93
2023/04/02 00:26:24;;;;;;;1.23;0.70;;;6.60;99.90;;;;;;5040258;28;20198;-93
2023/04/02 00:28:51;;;;;;;1.20;0.70;;;6.60;99.90;;;;;;5039446;28;20210;-93
2023/04/02 00:31:19;;;;;;;2.15;0.90;;;6.50;99.90;;;;;;5040090;28;20198;-94
2023/04/02 00:33:48;;;;;;;2.85;0.93;;;6.60;99.90;;;;;;5040237;28;20248;-93
2023/04/02 00:36:16;;;;;;;1.05;0.95;;;6.60;99.90;;;;;;5038955;28;20213;-93
2023/04/02 00:38:44;;;;;;;0.75;0.68;;;6.60;99.90;;;;;;5039576;28;20221;-92
2023/04/02 00:41:16;;;;;;;0.85;0.70;;;6.60;99.90;;;;;;5039886;28;20206;-93
2023/04/02 00:43:49;;;;;;;0.80;0.70;;;6.60;99.90;;;;;;5039732;28;20218;-93
2023/04/02 00:46:18;;;;;;;0.82;0.80;;;6.60;99.90;;;;;;5039450;28;20210;-94
2023/04/02 00:48:52;;;;;;;2.47;0.93;;;6.60;99.90;;;;;;5039180;28;20212;-92
2023/04/02 00:51:23;;;;;;;1.15;0.77;;;6.60;99.90;;;;;;5037438;28;20190;-93
2023/04/02 00:53:54;;;;;;;1.00;0.75;;;6.70;99.90;;;;;;5039379;28;20206;-93
2023/04/02 00:56:27;;;;;;;1.05;0.80;;;6.70;99.90;;;;;;5039352;28;20213;-93
2023/04/02 00:58:57;;;;;;;0.80;0.70;;;6.80;99.90;;;;;;5039137;28;20289;-91
2023/04/02 01:01:26;;;;;;;0.95;0.70;;;6.80;99.90;;;;;;5039219;28;20199;-93
2023/04/02 01:03:56;;;;;;;0.98;0.88;;;6.80;99.90;;;;;;5039027;28;20190;-93
2023/04/02 01:06:28;;;;;;;0.70;0.70;;;6.80;99.90;;;;;;5037264;28;20209;-93
2023/04/02 01:09:25;;;;;;;0.80;0.70;;;6.80;99.90;;;;;;5028650;28;20256;-94
2023/04/02 01:12:20;;;;;;;1.10;0.90;;;6.90;99.90;;;;;;5020872;28;20206;-93
2023/04/02 01:14:56;;;;;;;0.70;0.70;;;6.90;99.90;;;;;;5023091;28;20211;-93
2023/04/02 01:17:47;;;;;;;1.02;0.93;;;7.00;99.90;;;;;;5023119;28;20238;-93
2023/04/02 01:20:47;;;;;;;1.40;0.80;;;7.00;99.90;;;;;;5023183;28;20237;-93
2023/04/02 01:23:18;;;;;;;0.90;0.80;;;7.00;99.90;;;;;;5022356;28;20272;-93
2023/04/02 01:25:52;;;;;;;0.80;0.70;;;7.10;99.90;;;;;;5021675;28;20202;-93
2023/04/02 01:28:26;;;;;;;0.80;0.70;;;7.10;99.90;;;;;;5022730;28;20219;-93
2023/04/02 01:30:57;;;;;;;0.80;0.73;;;7.10;99.90;;;;;;5023441;28;20202;-93
2023/04/02 01:33:25;;;;;;;1.02;0.80;;;7.10;99.90;;;;;;5021573;28;20289;-93
2023/04/02 01:36:06;;;;;;;1.00;0.80;;;7.10;99.90;;;;;;5024335;28;20202;-93
2023/04/02 01:38:39;;;;;;;1.52;0.90;;;7.10;99.90;;;;;;5020227;28;20214;-93
2023/04/02 01:41:13;;;;;;;1.77;1.08;;;7.10;99.90;;;;;;5021099;28;20190;-93
2023/04/02 01:43:46;;;;;;;0.80;0.70;;;7.10;99.90;;;;;;5021135;28;20236;-92
2023/04/02 01:46:38;;;;;;;1.23;0.70;;;7.10;99.90;;;;;;5021440;28;20202;-92
2023/04/02 01:49:12;;;;;;;0.90;0.75;;;7.10;99.90;;;;;;5024679;28;20692;-93
2023/04/02 01:51:43;;;;;;;0.80;0.70;;;7.10;99.90;;;;;;5021718;28;20205;-92
2023/04/02 01:54:10;;;;;;;0.77;0.70;;;7.10;99.90;;;;;;5020171;28;20183;-93
2023/04/02 01:56:38;;;;;;;0.80;0.70;;;7.00;99.90;;;;;;5021389;28;20237;-92
2023/04/02 01:59:06;;;;;;;1.10;0.80;;;7.00;99.90;;;;;;5022444;28;20234;-91
2023/04/02 02:01:39;;;;;;;0.80;0.70;;;7.00;99.90;;;;;;5022320;28;20633;-94
2023/04/02 02:04:06;;;;;;;0.90;0.70;;;7.10;99.90;;;;;;5021675;28;20278;-92
2023/04/02 02:06:34;;;;;;;0.90;0.85;;;7.10;99.90;;;;;;5021146;28;20202;-93
2023/04/02 02:09:03;;;;;;;2.72;1.23;;;7.10;99.90;;;;;;5019970;28;20591;-93
2023/04/02 02:11:31;;;;;;;1.38;0.90;;;7.00;99.90;;;;;;5020474;28;20237;-93
2023/04/02 02:14:00;;;;;;;2.55;1.00;;;7.00;99.90;;;;;;5020408;28;20198;-92
2023/04/02 02:16:28;;;;;;;1.35;1.00;;;7.00;99.90;;;;;;5020589;28;20201;-93
2023/04/02 02:19:00;;;;;;;0.80;0.70;;;7.00;99.90;;;;;;5019951;28;20225;-93
2023/04/02 02:21:37;;;;;;;1.10;0.93;;;7.00;99.90;;;;;;5020077;28;20670;-93
2023/04/02 02:24:07;;;;;;;0.90;0.80;;;7.00;99.90;;;;;;5020830;28;20258;-92
2023/04/02 02:26:36;;;;;;;0.70;0.70;;;7.00;99.90;;;;;;5021698;28;20274;-93
2023/04/02 02:29:06;;;;;;;0.98;0.88;;;7.10;99.90;;;;;;5029705;23;20234;-72
2023/04/02 02:31:35;;;;;;;0.80;0.60;;;7.10;99.90;;;;;;5010737;28;20218;-71
2023/04/02 02:34:08;;;;;;;0.90;0.70;;;7.20;99.90;;;;;;5010258;28;20632;-71
2023/04/02 02:36:44;;;;;;;0.85;0.80;;;7.20;99.90;;;;;;5010507;28;20202;-71
2023/04/02 02:39:15;;;;;;;0.80;0.70;;;7.20;99.90;;;;;;5009796;28;20246;-71
2023/04/02 02:41:46;;;;;;;1.00;0.80;;;7.20;99.90;;;;;;5010376;28;20740;-71
2023/04/02 02:44:17;;;;;;;0.90;0.80;;;7.20;99.90;;;;;;5010440;28;20202;-72
2023/04/02 02:46:47;;;;;;;1.48;0.80;;;7.20;99.90;;;;;;5010329;28;20198;-71
2023/04/02 02:49:19;;;;;;;0.90;0.80;;;7.20;99.90;;;;;;5010100;28;20210;-71
2023/04/02 02:51:52;;;;;;;1.42;0.88;;;7.20;99.90;;;;;;5010226;28;20233;-71
2023/04/02 02:54:20;;;;;;;1.33;0.80;;;7.20;99.90;;;;;;5010373;28;20198;-72
2023/04/02 02:56:50;;;;;;;0.90;0.80;;;7.20;99.90;;;;;;5010174;28;20206;-71
2023/04/02 02:59:19;;;;;;;1.00;0.82;;;7.20;99.90;;;;;;5010054;28;20592;-71
2023/04/02 03:01:47;;;;;;;1.00;0.90;;;7.30;99.90;;;;;;5014183;28;20246;-71
2023/04/02 03:04:21;;;;;;;1.00;0.80;;;7.20;99.90;;;;;;4998528;28;20305;-71
2023/04/02 03:06:49;;;;;;;1.50;1.10;;;7.30;99.90;;;;;;5014170;28;20261;-71
2023/04/02 03:09:22;;;;;;;0.80;0.70;;;7.20;99.90;;;;;;4998868;28;20248;-71
2023/04/02 03:11:54;;;;;;;1.08;0.85;;;7.20;99.90;;;;;;5013842;28;20289;-71
2023/04/02 03:14:26;;;;;;;1.20;0.90;;;7.20;99.90;;;;;;5014493;28;20207;-71
2023/04/02 03:16:59;;;;;;;1.80;1.08;;;7.30;99.90;;;;;;5013634;28;20685;-71
2023/04/02 03:19:35;;;;;;;1.80;1.05;;;7.30;99.90;;;;;;5013780;28;20218;-71
2023/04/02 03:22:08;;;;;;;1.00;0.90;;;7.30;99.90;;;;;;5013667;28;20209;-71
2023/04/02 03:24:41;;;;;;;1.63;0.90;;;7.20;99.90;;;;;;5014124;28;20666;-71
2023/04/02 03:27:15;;;;;;;1.83;0.88;;;7.30;99.90;;;;;;5013620;28;20221;-71
2023/04/02 03:29:48;;;;;;;2.78;0.90;;;7.30;99.90;;;;;;5013471;28;20237;-71
2023/04/02 03:32:20;;;;;;;1.00;0.80;;;7.30;99.90;;;;;;5013958;28;20298;-72
2023/04/02 03:34:51;;;;;;;1.00;0.70;;;7.30;99.90;;;;;;5013817;28;20207;-71
2023/04/02 03:37:22;;;;;;;1.55;0.70;;;7.40;99.90;;;;;;4999054;28;20205;-72
2023/04/02 03:39:54;;;;;;;0.95;0.70;;;7.30;99.90;;;;;;5012667;28;20639;-71
2023/04/02 03:42:24;;;;;;;0.90;0.90;;;7.30;99.90;;;;;;5013656;28;20613;-72
2023/04/02 03:44:54;;;;;;;0.80;0.80;;;7.40;99.90;;;;;;5013357;28;20198;-71
2023/04/02 03:47:32;;;;;;;0.98;0.80;;;7.40;99.90;;;;;;5013391;28;20210;-71
2023/04/02 03:50:04;;;;;;;0.70;0.70;;;7.40;99.90;;;;;;5012504;28;20712;-72
2023/04/02 03:52:33;;;;;;;0.80;0.75;;;7.30;99.90;;;;;;5013359;28;20584;-72
2023/04/02 03:55:02;;;;;;;1.00;0.80;;;7.30;99.90;;;;;;5013023;28;20202;-71
2023/04/02 03:57:34;;;;;;;0.80;0.80;;;7.30;99.90;;;;;;4987723;28;20214;-70
2023/04/02 04:00:05;;;;;;;1.23;0.90;;;7.30;99.90;;;;;;5001318;28;20305;-70
2023/04/02 04:02:40;;;;;;;0.80;0.70;;;7.30;99.90;;;;;;5003229;28;20686;-70
2023/04/02 04:05:21;;;;;;;2.15;0.82;;;7.30;99.90;;;;;;5012790;28;20214;-70
2023/04/02 04:07:51;;;;;;;0.80;0.70;;;7.30;99.90;;;;;;5012808;28;20217;-70
2023/04/02 04:10:23;;;;;;;1.20;0.80;;;7.30;99.90;;;;;;5012880;28;20272;-70
2023/04/02 04:12:52;;;;;;;1.00;0.80;;;7.30;99.90;;;;;;5012982;28;20603;-70
2023/04/02 04:15:25;;;;;;;1.20;1.10;;;7.40;99.90;;;;;;5013115;28;20198;-70
2023/04/02 04:18:00;;;;;;;1.05;0.80;;;7.40;99.90;;;;;;5012514;28;20213;-70
2023/04/02 04:20:34;;;;;;;1.55;0.90;;;7.40;99.90;;;;;;5013031;28;20271;-70
2023/04/02 04:23:16;;;;;;;1.17;0.82;;;7.50;99.90;;;;;;5012573;28;20198;-70
2023/04/02 04:25:44;;;;;;;0.90;0.70;;;7.50;99.90;;;;;;5012760;28;20207;-70
2023/04/02 04:28:20;;;;;;;0.85;0.70;;;7.50;99.90;;;;;;5012279;28;20213;-70
2023/04/02 04:30:52;;;;;;;1.10;0.80;;;7.40;99.90;;;;;;5012909;28;20214;-70
2023/04/02 04:33:24;;;;;;;1.00;0.80;;;7.40;99.90;;;;;;5012798;28;20252;-70
2023/04/02 04:35:56;;;;;;;1.75;1.10;;;7.50;99.90;;;;;;5012456;28;20583;-70
2023/04/02 04:38:31;;;;;;;0.90;0.70;;;7.50;99.90;;;;;;5012647;28;20194;-70
2023/04/02 04:41:03;;;;;;;1.20;1.02;;;7.50;99.90;;;;;;5012136;28;20225;-70
2023/04/02 04:43:37;;;;;;;1.08;0.90;;;7.50;99.90;;;;;;5012738;28;20199;-70
2023/04/02 04:46:09;;;;;;;1.70;0.80;;;7.40;99.90;;;;;;5011982;28;20622;-70
2023/04/02 04:48:38;;;;;;;1.10;0.80;;;7.30;99.90;;;;;;5012576;28;20207;-70
2023/04/02 04:51:10;;;;;;;1.00;0.90;;;7.20;99.90;;;;;;5012044;28;20252;-70
2023/04/02 04:53:46;;;;;;;1.00;0.85;;;7.20;99.90;;;;;;5012622;28;20221;-70
2023/04/02 04:56:16;;;;;;;1.10;0.90;;;7.10;99.90;;;;;;5012273;28;20233;-70
2023/04/02 04:58:48;;;;;;;1.65;1.00;;;7.10;99.90;;;;;;5012193;28;20213;-70
2023/04/02 05:01:19;;;;;;;1.33;1.00;;;7.10;99.90;;;;;;5011646;28;20233;-70
2023/04/02 05:03:51;;;;;;;1.52;1.33;;;7.10;99.90;;;;;;5011962;28;20202;-70
2023/04/02 05:06:25;;;;;;;1.23;1.00;;;7.00;99.90;;;;;;5011982;28;20201;-70
2023/04/02 05:08:55;;;;;;;1.77;1.05;;;7.10;99.90;;;;;;5011500;28;20206;-70
2023/04/02 05:11:27;;;;;;;0.80;0.70;;;7.10;99.90;;;;;;5012311;28;20210;-70
2023/04/02 05:13:58;;;;;;;1.55;0.98;;;7.10;99.90;;;;;;5011727;28;20226;-70
2023/04/02 05:16:31;;;;;;;0.80;0.80;;;7.10;99.90;;;;;;5005639;28;20573;-70
2023/04/02 05:19:06;;;;;;;1.27;1.10;;;7.20;99.90;;;;;;5011253;28;20256;-70
2023/04/02 05:21:41;;;;;;;1.27;1.15;;;7.20;99.90;;;;;;5011811;28;20685;-70
2023/04/02 05:24:29;;;;;;;0.80;0.80;;;7.10;99.90;;;;;;5010824;28;20232;-70
2023/04/02 05:27:00;;;;;;;1.20;1.00;;;7.10;99.90;;;;;;5011333;28;20265;-70
2023/04/02 05:29:33;;;;;;;0.93;0.82;;;7.10;99.90;;;;;;5010726;28;20213;-70
2023/04/02 05:32:04;;;;;;;1.80;1.00;;;7.00;99.90;;;;;;5010033;28;20209;-70
2023/04/02 05:34:35;;;;;;;1.20;1.10;;;7.00;99.90;;;;;;5002877;28;20206;-70
2023/04/02 05:37:03;;;;;;;1.08;0.98;;;7.10;99.90;;;;;;5008936;28;20692;-70
2023/04/02 05:39:31;;;;;;;1.08;0.95;;;7.10;99.90;;;;;;5010189;28;20198;-70
2023/04/02 05:42:02;;;;;;;1.20;1.00;;;7.10;99.90;;;;;;5009618;28;20590;-69
2023/04/02 05:44:31;;;;;;;1.35;0.93;;;7.10;99.90;;;;;;5009759;28;20194;-67
2023/04/02 05:47:01;;;;;;;3.42;1.40;;;7.10;99.90;;;;;;5010342;28;20221;-67
2023/04/02 05:49:33;;;;;;;1.25;1.00;;;7.20;99.90;;;;;;5009862;28;20207;-67
2023/04/02 05:52:04;;;;;;;1.52;1.00;;;7.20;99.90;;;;;;5009965;28;20214;-67
2023/04/02 05:54:36;;;;;;;0.90;0.80;;;7.20;99.90;;;;;;5009753;28;20206;-67
2023/04/02 05:57:08;;;;;;;2.25;1.40;;;7.20;99.90;;;;;;5008810;28;20224;-68
2023/04/02 05:59:40;;;;;;;0.95;0.88;;;7.20;99.90;;;;;;5009848;28;20194;-67
2023/04/02 06:02:17;;;;;;;3.20;1.08;;;7.20;99.90;;;;;;5010178;28;20610;-67
2023/04/02 06:04:50;;;;;;;0.95;0.82;;;7.30;99.90;;;;;;5010029;28;20206;-67
2023/04/02 06:07:22;;;;;;;1.20;0.90;;;7.30;99.90;;;;;;5009959;28;20207;-67
2023/04/02 06:09:54;;;;;;;1.70;1.10;;;7.30;99.90;;;;;;5009488;28;20218;-67
2023/04/02 06:12:28;;;;;;;1.75;1.00;;;7.40;99.90;;;;;;5010056;28;20225;-67
2023/04/02 06:14:55;;;;;;;2.10;1.02;;;7.40;99.90;;;;;;5007883;28;20584;-67
2023/04/02 06:17:22;;;;;;;1.10;1.00;;;7.40;99.90;;;;;;4985236;28;20194;-67
2023/04/02 06:19:49;;;;;;;1.00;0.90;;;7.40;99.90;;;;;;5009518;28;20292;-67
2023/04/02 06:22:24;;;;;;;1.40;0.95;;;7.50;99.90;;;;;;5009838;28;20204;-67
2023/04/02 06:24:57;;;;;;;1.30;1.00;;;7.40;99.90;;;;;;5009643;28;20212;-67
2023/04/02 06:27:26;;;;;;;1.10;1.00;;;7.40;99.90;;;;;;5009496;28;20543;-67
2023/04/02 06:29:59;;;;;;;1.30;1.00;;;7.40;99.90;;;;;;4973997;28;1036800;-67
2023/04/02 06:32:26;;;;;;;1.27;1.17;;;7.40;99.90;;;;;;5010446;28;20640;-67
2023/04/02 06:34:53;;;;;;;3.03;1.27;;;7.40;99.90;;;;;;5010525;28;20202;-67
2023/04/02 06:37:27;;;;;;;1.50;0.90;;;7.50;99.90;;;;;;5010225;28;20198;-67
2023/04/02 06:39:54;;;;;;;1.60;1.20;;;7.50;99.90;;;;;;5010071;28;20222;-67
2023/04/02 06:42:24;;;;;;;1.15;0.80;;;7.60;99.90;;;;;;5002531;28;20199;-67
2023/04/02 06:44:51;;;;;;;1.23;1.13;;;7.60;99.90;;;;;;5010322;28;20297;-67
2023/04/02 06:47:26;;;;;;;1.48;1.23;;;7.70;99.90;;;;;;5010474;28;20203;-67
2023/04/02 06:49:58;;;;;;;1.00;0.90;;;7.80;99.90;;;;;;5009916;28;20232;-67
2023/04/02 06:52:29;;;;;;;1.00;0.90;;;7.80;99.90;;;;;;5010510;28;20202;-67
2023/04/02 06:54:56;;;;;;;0.90;0.80;;;7.90;99.90;;;;;;5006572;28;20675;-65
2023/04/02 06:57:22;;;;;;;1.10;1.00;;;8.00;99.90;;;;;;4983036;28;20206;-66
2023/04/02 06:59:49;;;;;;;1.20;0.95;;;8.00;99.90;;;;;;4984043;28;20359;-66
2023/04/02 07:02:28;;;;;;;0.80;0.80;;;8.00;99.90;;;;;;4979850;28;20211;-66
2023/04/02 07:05:01;;;;;;;2.25;1.15;;;8.00;99.90;;;;;;4985407;28;20721;-66
2023/04/02 07:07:29;;;;;;;1.20;0.90;;;8.10;99.90;;;;;;4983223;28;20694;-66
2023/04/02 07:09:56;;;;;;;0.90;0.80;;;8.10;99.90;;;;;;4984913;28;20595;-66
2023/04/02 07:12:24;;;;;;;1.00;0.90;;;8.20;99.90;;;;;;4983871;28;20191;-66
2023/04/02 07:14:51;;;;;;;1.70;0.90;;;8.30;99.90;;;;;;4984626;28;20621;-66
2023/04/02 07:17:18;;;;;;;1.45;1.02;;;8.30;99.90;;;;;;4984504;28;20195;-66
2023/04/02 07:19:48;;;;;;;1.23;0.90;;;8.30;99.90;;;;;;4983547;28;20239;-66
2023/04/02 07:22:15;;;;;;;1.00;0.90;;;8.40;99.90;;;;;;4984654;28;20243;-66
2023/04/02 07:24:43;;;;;;;1.23;1.13;;;8.40;99.90;;;;;;4983531;28;20215;-66
2023/04/02 07:27:10;;;;;;;1.52;1.25;;;8.50;99.90;;;;;;4993517;28;20199;-66
2023/04/02 07:29:41;;;;;;;1.95;1.42;;;8.60;99.90;;;;;;4985405;28;20207;-65
2023/04/02 07:32:08;;;;;;;1.20;1.00;;;8.70;99.90;;;;;;4988816;28;20195;-66
2023/04/02 07:34:35;;;;;;;1.30;1.13;;;8.80;99.90;;;;;;4986286;28;20266;-66
2023/04/02 07:37:02;;;;;;;1.35;1.05;;;8.80;99.90;;;;;;4988758;28;20647;-66
2023/04/02 07:39:29;;;;;;;0.98;0.88;;;8.80;99.90;;;;;;4986896;28;20203;-66
2023/04/02 07:41:59;;;;;;;1.73;1.10;;;8.80;99.90;;;;;;4987314;28;20219;-65
2023/04/02 07:44:26;;;;;;;0.82;0.80;;;8.70;99.90;;;;;;4987676;28;20207;-66
2023/04/02 07:46:53;;;;;;;1.33;1.10;;;8.60;99.90;;;;;;4988735;28;20204;-66
2023/04/02 07:49:20;;;;;;;1.10;0.93;;;8.60;99.90;;;;;;4995142;28;20289;-66
2023/04/02 07:51:46;;;;;;;1.35;1.15;;;8.60;99.90;;;;;;5013208;28;20237;-66
2023/04/02 07:54:13;;;;;;;1.08;0.82;;;8.60;99.90;;;;;;5013663;28;20539;-65
2023/04/02 07:56:40;;;;;;;1.48;1.27;;;8.60;99.90;;;;;;5010218;28;20218;-66
2023/04/02 07:59:08;;;;;;;1.00;0.85;;;8.60;99.90;;;;;;5012218;28;20203;-65
2023/04/02 08:01:35;;;;;;;2.25;0.80;;;8.70;99.90;;;;;;5013544;28;20218;-66
2023/04/02 08:04:03;;;;;;;1.05;0.90;;;8.70;99.90;;;;;;5013323;28;20230;-66
2023/04/02 08:06:30;;;;;;;2.85;1.33;;;8.80;99.90;;;;;;5013603;28;20202;-66
2023/04/02 08:08:57;;;;;;;1.42;0.90;;;8.90;99.90;;;;;;5012995;28;20210;-66
2023/04/02 08:11:24;;;;;;;1.70;1.00;;;8.80;99.90;;;;;;5013300;28;20716;-66
2023/04/02 08:13:51;;;;;;;1.10;0.80;;;8.90;99.90;;;;;;5013012;28;20202;-66
2023/04/02 08:16:20;;;;;;;1.30;0.77;;;8.90;99.90;;;;;;5012662;28;20230;-66
2023/04/02 08:18:47;;;;;;;0.90;0.80;;;9.00;99.90;;;;;;5012569;28;20198;-66
2023/04/02 08:21:14;;;;;;;2.35;1.02;;;9.10;99.90;;;;;;5012967;28;20276;-66
2023/04/02 08:23:41;;;;;;;1.00;0.90;;;9.20;99.90;;;;;;5012858;28;20724;-66
2023/04/02 08:26:08;;;;;;;0.85;0.75;;;9.20;99.90;;;;;;5012654;28;20288;-65
2023/04/02 08:31:07;;;;;;;0.80;0.70;;;9.30;99.90;;;;;;5029266;28;20612;-66
2023/04/02 08:33:38;;;;;;;1.23;0.90;;;9.40;99.90;;;;;;5031913;28;20193;-65
2023/04/02 08:36:05;;;;;;;2.25;1.08;;;9.40;99.90;;;;;;5032782;28;20268;-65
2023/04/02 08:38:32;;;;;;;1.17;1.00;;;9.40;99.90;;;;;;5033263;28;20229;-66
2023/04/02 08:41:01;;;;;;;1.00;0.90;;;9.40;99.90;;;;;;5032671;28;20224;-66
2023/04/02 08:44:03;;;;;;;1.45;1.10;;;9.50;99.90;;;;;;5033156;28;20237;-67
2023/04/02 08:46:37;;;;;;;1.20;0.90;;;9.70;99.90;;;;;;5032856;28;20225;-67
2023/04/02 08:49:13;;;;;;;1.83;0.90;;;9.80;99.90;;;;;;5032605;28;20673;-66
2023/04/02 08:51:40;;;;;;;1.52;0.90;;;9.90;99.90;;;;;;5032984;28;20217;-66
2023/04/02 08:54:18;;;;;;;0.80;0.70;;;10.10;99.90;;;;;;5022765;28;20210;-67
2023/04/02 08:56:51;;;;;;;0.90;0.70;;;10.30;99.90;;;;;;5012968;28;20202;-67
2023/04/02 08:59:24;;;;;;;1.38;0.90;;;10.40;99.90;;;;;;5013159;28;20698;-66
2023/04/02 09:01:56;;;;;;;0.80;0.70;;;10.60;99.90;;;;;;5010682;28;20700;-67
2023/04/02 09:04:25;;;;;;;0.90;0.70;;;10.60;99.90;;;;;;5013257;28;20209;-67
2023/04/02 09:06:54;;;;;;;1.73;1.30;;;10.60;99.90;;;;;;5029645;28;20213;-66
2023/04/02 09:09:22;;;;;;;1.08;0.95;;;10.70;99.90;;;;;;5032943;28;20209;-67
2023/04/02 09:11:53;;;;;;;1.23;1.13;;;10.80;99.90;;;;;;5032442;28;20214;-67
2023/04/02 09:14:23;;;;;;;0.90;0.80;;;10.80;99.90;;;;;;5033015;28;20653;-67
2023/04/02 09:16:53;;;;;;;0.80;0.70;;;10.80;99.90;;;;;;5031959;28;20209;-67
2023/04/02 09:19:23;;;;;;;1.48;0.88;;;10.80;99.90;;;;;;5032452;28;20198;-67
2023/04/02 09:22:04;;;;;;;3.17;0.90;;;10.70;99.90;;;;;;5032438;28;20313;-67
2023/04/02 09:24:31;;;;;;;1.15;1.02;;;10.70;99.90;;;;;;5032771;28;20284;-65
2023/04/02 09:26:58;;;;;;;1.20;0.90;;;10.80;99.90;;;;;;5032141;28;20210;-67
2023/04/02 09:29:36;;;;;;;1.00;0.90;;;10.80;99.90;;;;;;5012211;28;20217;-67
2023/04/02 09:32:13;;;;;;;0.98;0.88;;;10.90;99.90;;;;;;5012843;28;20578;-67
2023/04/02 09:34:40;;;;;;;1.90;1.80;;;10.90;99.90;;;;;;5012852;28;20199;-67
2023/04/02 09:37:14;;;;;;;2.72;1.83;;;10.90;99.90;;;;;;5012532;28;20677;-67
2023/04/02 09:39:41;;;;;;;1.88;1.33;;;10.80;99.90;;;;;;5012248;28;20632;-65
2023/04/02 09:42:27;;;;;;;1.27;1.17;;;10.70;99.90;;;;;;5022853;28;20240;-67
2023/04/02 09:45:15;;;;;;;1.88;1.50;;;10.70;99.90;;;;;;5032067;28;20794;-67
2023/04/02 09:47:42;;;;;;;1.65;1.20;;;10.60;99.90;;;;;;5031998;28;20205;-67
2023/04/02 09:50:31;;;;;;;1.30;1.13;;;10.50;99.90;;;;;;5032193;28;20222;-67
2023/04/02 09:52:59;;;;;;;2.58;1.10;;;10.40;99.90;;;;;;5026752;28;20480;-66
2023/04/02 09:55:27;;;;;;;3.17;2.28;;;10.20;99.90;;;;;;5024051;28;20260;-67
2023/04/02 09:58:13;;;;;;;5.70;3.25;;;10.10;99.90;;;;;;5012657;28;20206;-67
2023/04/02 10:00:48;;;;;;;5.35;3.55;;;10.10;99.90;;;;;;5019558;28;20590;-66
2023/04/02 10:03:23;;;;;;;2.20;1.55;;;10.10;99.90;;;;;;5008430;28;20221;-67
2023/04/02 10:06:03;;;;;;;2.40;1.80;;;10.00;99.90;;;;;;5024032;28;20204;-67
2023/04/02 10:08:32;;;;;;;1.20;1.10;;;10.00;99.90;;;;;;5031021;28;20205;-65
2023/04/02 10:11:01;;;;;;;1.08;0.98;;;10.00;99.90;;;;;;5014363;28;20234;-67
2023/04/02 10:13:33;;;;;;;1.10;1.00;;;9.90;99.90;;;;;;5026532;28;20662;-68
2023/04/02 10:16:04;;;;;;;1.10;0.95;;;9.90;99.90;;;;;;5032379;28;20216;-68
2023/04/02 10:18:41;;;;;;;2.00;1.10;;;9.90;99.90;;;;;;5032093;28;20209;-68
2023/04/02 10:21:10;;;;;;;1.58;1.20;;;9.80;99.90;;;;;;5031898;28;20228;-68
2023/04/02 10:23:39;;;;;;;1.20;1.10;;;9.80;99.90;;;;;;5032287;28;20209;-68
2023/04/02 10:26:19;;;;;;;1.55;1.05;;;9.80;99.90;;;;;;5032191;28;20209;-68
2023/04/02 10:29:01;;;;;;;1.27;1.10;;;9.80;99.90;;;;;;5031593;28;20205;-68
2023/04/02 10:31:33;;;;;;;1.55;1.00;;;9.70;99.90;;;;;;5032888;28;20590;-67
2023/04/02 10:34:03;;;;;;;4.65;1.20;;;9.70;99.90;;;;;;5031943;28;20614;-67
2023/04/02 10:36:45;;;;;;;1.10;1.00;;;9.80;99.90;;;;;;5031754;28;20194;-68
2023/04/02 10:39:18;;;;;;;2.03;1.00;;;9.80;99.90;;;;;;5031633;28;20201;-67
2023/04/02 10:41:51;;;;;;;1.35;1.20;;;9.80;99.90;;;;;;5031138;28;20230;-67
2023/04/02 10:44:28;;;;;;;1.10;0.90;;;9.80;99.90;;;;;;5031491;28;20255;-67
2023/04/02 10:47:07;;;;;;;0.98;0.88;;;9.80;99.90;;;;;;5031606;28;20205;-67
2023/04/02 10:49:42;;;;;;;2.08;1.13;;;9.90;99.90;;;;;;5017194;28;20209;-67
2023/04/02 10:52:15;;;;;;;1.42;1.13;;;9.90;99.90;;;;;;5011435;28;20202;-68
2023/04/02 10:54:49;;;;;;;1.30;1.10;;;9.90;99.90;;;;;;5011992;28;20293;-67
2023/04/02 10:57:27;;;;;;;1.70;1.30;;;9.90;99.90;;;;;;5011898;28;20617;-67
2023/04/02 10:59:59;;;;;;;1.60;0.98;;;9.90;99.90;;;;;;5084599;22;21056;-66
2023/04/02 11:02:33;;;;;;;1.15;0.90;;;10.00;99.90;;;;;;5054563;23;20221;-67
2023/04/02 11:05:07;;;;;;;1.52;1.00;;;10.00;99.90;;;;;;5054771;28;20717;-66
2023/04/02 11:07:52;;;;;;;1.10;0.93;;;10.00;99.90;;;;;;5052556;28;20292;-66
2023/04/02 11:10:21;;;;;;;1.25;0.80;;;10.00;99.90;;;;;;5051039;28;20730;-66
2023/04/02 11:12:54;;;;;;;1.27;0.90;;;10.10;99.90;;;;;;5051273;28;20240;-65
2023/04/02 11:15:21;;;;;;;1.50;1.02;;;10.10;99.90;;;;;;5052109;28;20197;-66
2023/04/02 11:17:49;;;;;;;1.15;0.98;;;10.00;99.90;;;;;;5051292;28;20216;-66
2023/04/02 11:20:58;;;;;;;2.05;1.10;;;10.00;99.90;;;;;;5052211;28;20666;-66
2023/04/02 11:23:35;;;;;;;2.00;0.93;;;10.10;99.90;;;;;;5051190;28;20213;-66
2023/04/02 11:26:35;;;;;;;1.00;0.90;;;10.10;99.90;;;;;;5035820;28;20210;-66
2023/04/02 11:29:22;;;;;;;0.80;0.80;;;10.20;99.90;;;;;;5036278;28;20590;-66
2023/04/02 11:31:50;;;;;;;1.33;0.90;;;10.20;99.90;;;;;;5054855;28;20631;-66
2023/04/02 11:34:53;;;;;;;0.90;0.80;;;10.30;99.90;;;;;;5055133;28;20251;-66
2023/04/02 11:37:33;;;;;;;1.65;1.20;;;10.30;99.90;;;;;;5048985;28;20251;-66
2023/04/02 11:40:00;;;;;;;0.95;0.85;;;10.40;99.90;;;;;;5054126;28;20258;-66
2023/04/02 11:42:30;;;;;;;1.10;0.93;;;10.50;99.90;;;;;;5054648;28;20217;-65
2023/04/02 11:45:00;;;;;;;1.40;1.10;;;10.50;99.90;;;;;;5054638;28;20227;-64
2023/04/02 11:47:28;;;;;;;1.17;1.05;;;10.60;99.90;;;;;;5054542;28;20194;-64
2023/04/02 11:50:01;;;;;;;1.23;0.90;;;10.60;99.90;;;;;;5053760;28;20315;-66
2023/04/02 11:52:32;;;;;;;1.00;0.90;;;10.70;99.90;;;;;;5054814;28;20189;-65
2023/04/02 11:55:18;;;;;;;1.08;0.80;;;10.70;99.90;;;;;;5054949;28;20212;-67
2023/04/02 11:58:24;;;;;;;1.17;0.80;;;10.80;99.90;;;;;;5054585;28;20210;-66
2023/04/02 12:01:23;;;;;;;1.20;0.90;;;10.90;99.90;;;;;;5054630;28;20274;-67
2023/04/02 12:04:08;;;;;;;0.90;0.80;;;11.00;99.90;;;;;;5042130;28;20630;-65
2023/04/02 12:06:50;;;;;;;1.10;0.95;;;11.10;99.90;;;;;;5034826;28;20194;-66
2023/04/02 12:09:22;;;;;;;1.10;0.90;;;11.20;99.90;;;;;;5034440;28;20198;-66
2023/04/02 12:11:50;;;;;;;0.90;0.80;;;11.30;99.90;;;;;;5034356;28;20232;-65
2023/04/02 12:14:44;;;;;;;1.08;0.98;;;11.50;99.90;;;;;;5034487;28;20201;-65
2023/04/02 12:17:20;;;;;;;0.85;0.70;;;11.60;99.90;;;;;;5034941;28;20225;-66
2023/04/02 12:19:49;;;;;;;0.88;0.80;;;11.60;99.90;;;;;;5033662;28;20692;-66
2023/04/02 12:22:20;;;;;;;0.93;0.73;;;11.70;99.90;;;;;;5034141;28;20620;-66
2023/04/02 12:24:48;;;;;;;0.95;0.80;;;11.70;99.90;;;;;;5033989;28;20385;-66
2023/04/02 12:27:21;;;;;;;0.90;0.80;;;11.80;99.90;;;;;;5033397;28;20201;-66
2023/04/02 12:29:50;;;;;;;1.20;0.93;;;11.80;99.90;;;;;;5033315;28;20249;-66
2023/04/02 12:32:26;;;;;;;1.13;1.00;;;11.80;99.90;;;;;;5034234;28;20284;-66
2023/04/02 12:34:54;;;;;;;1.30;0.80;;;11.90;99.90;;;;;;5034033;28;20209;-67
2023/04/02 12:37:24;;;;;;;3.10;0.80;;;12.00;99.90;;;;;;5046365;28;20221;-67
2023/04/02 12:39:57;;;;;;;0.90;0.70;;;12.10;99.90;;;;;;5037135;28;20225;-67
2023/04/02 12:42:29;;;;;;;0.97;0.80;;;12.20;99.90;;;;;;5033337;28;20683;-67
2023/04/02 12:44:57;;;;;;;1.10;0.77;;;12.20;99.90;;;;;;5033758;28;20466;-66
2023/04/02 12:47:24;;;;;;;1.00;0.80;;;12.20;99.90;;;;;;5033119;28;20198;-66
2023/04/02 12:49:52;;;;;;;1.00;0.80;;;12.20;99.90;;;;;;5032186;28;20730;-65
2023/04/02 12:52:21;;;;;;;0.90;0.75;;;12.30;99.90;;;;;;5033565;28;20198;-67
2023/04/02 12:54:49;;;;;;;1.00;0.77;;;12.40;99.90;;;;;;5033231;28;20225;-65
2023/04/02 12:57:39;;;;;;;1.52;0.75;;;12.50;99.90;;;;;;5033302;28;20606;-66
2023/04/02 13:00:30;;;;;;;0.80;0.70;;;12.60;99.90;;;;;;5032838;28;20316;-65
2023/04/02 13:03:01;;;;;;;1.00;0.90;;;12.70;99.90;;;;;;5032508;28;20312;-66
2023/04/02 13:05:34;;;;;;;0.80;0.70;;;12.80;99.90;;;;;;5032922;28;20205;-66
2023/04/02 13:08:01;;;;;;;0.90;0.77;;;12.90;99.90;;;;;;5042907;28;20459;-65
2023/04/02 13:10:28;;;;;;;0.83;0.70;;;12.90;99.90;;;;;;5053058;28;20247;-65
2023/04/02 13:12:56;;;;;;;0.80;0.70;;;12.90;99.90;;;;;;5052423;28;20463;-66
2023/04/02 13:15:24;;;;;;;0.90;0.80;;;12.80;99.90;;;;;;5052768;28;20569;-65
2023/04/02 13:18:07;;;;;;;0.90;0.70;;;12.90;99.90;;;;;;5052065;28;20565;-66
2023/04/02 13:20:34;;;;;;;0.73;0.60;;;12.80;99.90;;;;;;5052949;28;20601;-66
2023/04/02 13:23:22;;;;;;;0.82;0.73;;;12.80;99.90;;;;;;5052265;28;20865;-65
2023/04/02 13:25:49;;;;;;;0.80;0.70;;;12.80;99.90;;;;;;5052400;28;20212;-64